Terminal Aerodrome Forecast
Issued by NWS

Home | Current Version | Previous Version | Text Only | Print | Product List | Glossary On
Versions: 1 2 3 4 5 6 7 8 9 10 11 12 13 14 15 16 17 18 19 20 21 22 23 24 25 26 27 28 29 30 31 32 33 34 35 36 37 38 39 40 41 42 43 44 45 46 47 48
000
FTUS45 KTFX 191722
TAFGTF
TAF
KGTF 191722Z 1918/2018 21017G27KT P6SM SCT080 OVC150
     FM192100 24024G36KT P6SM SCT050 OVC250
     FM200300 24014G22KT P6SM SCT040 OVC240
     FM201000 23009KT P6SM SCT045 OVC110
     FM201200 22007KT P6SM SCT040 OVC100=

USA.gov is the U.S. government's official web portal to all federal, state and local government web resources and services.